Ana Sayfa
METAR-TAF:

METAR-TAF

Havaalanları :

Konya Havalimanı

Konya, Türkiye

Enlem: 37-58N, Boylam: 032-33E, yükseklik: 1032 m

Güncel hava durumu gözlemi

Rapor saat 10:50 UTC de 1 saat ve 9 dakika önce yapıldı.
Rüzgar kuzeydan 10 kt
Sıcaklık 17°C
Nem 42%
Basınç 1028 hPa
Görüş mesafesi 10 km veya daha fazla
4000 ft yükseklikte parçalı bulutlu
10000 ft yükseklikte parçalı çok bulutlu

METAR: LTAN 241050Z 36010KT 9999 SCT040 BKN100 17/04 Q1028 NOSIG

Saat: 14:59 (11:59 UTC)

Tahmin

Rapor saat 10:40 UTC de 1 saat ve 19 dakika önce yapıldı.
Ayın 24'si saat 12 UTC'den ayın 24'si saat 21 UTC'ye kadar geçerli Tahmin
Rüzgar kuzeydan 9 kt
Görüş mesafesi 10 km veya daha fazla
4000 ft yükseklikte parçalı bulutlu
10000 ft yükseklikte parçalı çok bulutlu

TAF: LTAN 241040Z 2412/2421 36009KT 9999 SCT040 BKN100

4.000'den fazla havaalanı için hava durumu gözlemleri ve tahminleri (METAR ve TAF raporları).

Kullanılabilir istasyonlar harita üzerinde sarı ve kırmızı noktalarla gösterilir.

İstasyonun adını görmek için fareyi noktanın üzerinde gezdirin.

Sonrasında hava gözlem ve tahminlerini görmek için tıklayın.

Haritayı değiştirmek için: yaklaştırmak için siyah artı işaretli yeşil düğmeye ve uzaklaştırmak için de eksi işaretli düğmeye hızla tıklayın; bitişik haritalar için yeşil okları kullanın.


METAR-TAF: